sensor_id;sensor_type;location;lat;lon;timestamp;temperature;humidity
16829;DHT22;8531;48.078;11.968;2024-01-11T00:01:47;-5.90;99.90
16829;DHT22;8531;48.078;11.968;2024-01-11T00:04:14;-5.70;99.90
16829;DHT22;8531;48.078;11.968;2024-01-11T00:06:42;-5.60;99.90
16829;DHT22;8531;48.078;11.968;2024-01-11T00:09:07;-5.60;99.90
16829;DHT22;8531;48.078;11.968;2024-01-11T00:11:33;-5.50;99.90
16829;DHT22;8531;48.078;11.968;2024-01-11T00:13:59;-5.60;99.90
16829;DHT22;8531;48.078;11.968;2024-01-11T00:16:24;-5.50;99.90
16829;DHT22;8531;48.078;11.968;2024-01-11T00:18:51;-5.50;99.90
16829;DHT22;8531;48.078;11.968;2024-01-11T00:21:17;-5.50;99.90
16829;DHT22;8531;48.078;11.968;2024-01-11T00:23:43;-5.70;99.90
16829;DHT22;8531;48.078;11.968;2024-01-11T00:26:11;-5.80;99.90
16829;DHT22;8531;48.078;11.968;2024-01-11T00:28:37;-5.90;99.90
16829;DHT22;8531;48.078;11.968;2024-01-11T00:31:03;-6.00;99.90
16829;DHT22;8531;48.078;11.968;2024-01-11T00:33:28;-5.80;99.90
16829;DHT22;8531;48.078;11.968;2024-01-11T00:35:54;-5.90;99.90
16829;DHT22;8531;48.078;11.968;2024-01-11T00:38:20;-6.00;99.90
16829;DHT22;8531;48.078;11.968;2024-01-11T00:40:45;-6.00;99.90
16829;DHT22;8531;48.078;11.968;2024-01-11T00:43:11;-6.00;99.90
16829;DHT22;8531;48.078;11.968;2024-01-11T00:45:37;-6.10;99.90
16829;DHT22;8531;48.078;11.968;2024-01-11T00:48:04;-6.00;99.90
16829;DHT22;8531;48.078;11.968;2024-01-11T00:50:37;-5.90;99.90
16829;DHT22;8531;48.078;11.968;2024-01-11T00:53:02;-5.90;99.90
16829;DHT22;8531;48.078;11.968;2024-01-11T00:55:29;-5.90;99.90
16829;DHT22;8531;48.078;11.968;2024-01-11T00:57:55;-6.00;99.90
16829;DHT22;8531;48.078;11.968;2024-01-11T01:00:21;-5.90;99.90
16829;DHT22;8531;48.078;11.968;2024-01-11T01:02:46;-5.80;99.90
16829;DHT22;8531;48.078;11.968;2024-01-11T01:05:12;-5.90;99.90
16829;DHT22;8531;48.078;11.968;2024-01-11T01:07:38;-5.90;99.90
16829;DHT22;8531;48.078;11.968;2024-01-11T01:10:04;-5.90;99.90
16829;DHT22;8531;48.078;11.968;2024-01-11T01:12:29;-6.00;99.90
16829;DHT22;8531;48.078;11.968;2024-01-11T01:14:55;-6.00;99.90
16829;DHT22;8531;48.078;11.968;2024-01-11T01:17:22;-6.10;99.90
16829;DHT22;8531;48.078;11.968;2024-01-11T01:19:47;-6.00;99.90
16829;DHT22;8531;48.078;11.968;2024-01-11T01:22:13;-6.00;99.90
16829;DHT22;8531;48.078;11.968;2024-01-11T01:24:39;-6.10;99.90
16829;DHT22;8531;48.078;11.968;2024-01-11T01:27:05;-6.00;99.90
16829;DHT22;8531;48.078;11.968;2024-01-11T01:29:30;-6.10;99.90
16829;DHT22;8531;48.078;11.968;2024-01-11T01:31:56;-6.10;99.90
16829;DHT22;8531;48.078;11.968;2024-01-11T01:34:22;-6.10;99.90
16829;DHT22;8531;48.078;11.968;2024-01-11T01:36:47;-6.00;99.90
16829;DHT22;8531;48.078;11.968;2024-01-11T01:39:13;-6.00;99.90
16829;DHT22;8531;48.078;11.968;2024-01-11T01:41:39;-5.90;99.90
16829;DHT22;8531;48.078;11.968;2024-01-11T01:44:04;-6.00;99.90
16829;DHT22;8531;48.078;11.968;2024-01-11T01:46:30;-5.90;99.90
16829;DHT22;8531;48.078;11.968;2024-01-11T01:48:57;-5.90;99.90
16829;DHT22;8531;48.078;11.968;2024-01-11T01:51:24;-6.00;99.90
16829;DHT22;8531;48.078;11.968;2024-01-11T01:53:52;-6.00;99.90
16829;DHT22;8531;48.078;11.968;2024-01-11T01:56:19;-5.90;99.90
16829;DHT22;8531;48.078;11.968;2024-01-11T01:58:45;-5.90;99.90
16829;DHT22;8531;48.078;11.968;2024-01-11T02:01:12;-5.90;99.90
16829;DHT22;8531;48.078;11.968;2024-01-11T02:03:40;-5.90;99.90
16829;DHT22;8531;48.078;11.968;2024-01-11T02:06:07;-5.90;99.90
16829;DHT22;8531;48.078;11.968;2024-01-11T02:08:33;-6.00;99.90
16829;DHT22;8531;48.078;11.968;2024-01-11T02:11:00;-5.90;99.90
16829;DHT22;8531;48.078;11.968;2024-01-11T02:13:26;-5.90;99.90
16829;DHT22;8531;48.078;11.968;2024-01-11T02:15:52;-6.00;99.90
16829;DHT22;8531;48.078;11.968;2024-01-11T02:18:18;-6.10;99.90
16829;DHT22;8531;48.078;11.968;2024-01-11T02:20:44;-6.00;99.90
16829;DHT22;8531;48.078;11.968;2024-01-11T02:23:14;-6.10;99.90
16829;DHT22;8531;48.078;11.968;2024-01-11T02:25:42;-6.00;99.90
16829;DHT22;8531;48.078;11.968;2024-01-11T02:28:08;-6.10;99.90
16829;DHT22;8531;48.078;11.968;2024-01-11T02:30:34;-6.00;99.90
16829;DHT22;8531;48.078;11.968;2024-01-11T02:33:00;-6.00;99.90
16829;DHT22;8531;48.078;11.968;2024-01-11T02:35:27;-5.90;99.90
16829;DHT22;8531;48.078;11.968;2024-01-11T02:37:54;-5.90;99.90
16829;DHT22;8531;48.078;11.968;2024-01-11T02:40:20;-5.80;99.90
16829;DHT22;8531;48.078;11.968;2024-01-11T02:42:46;-5.80;99.90
16829;DHT22;8531;48.078;11.968;2024-01-11T02:45:12;-5.70;99.90
16829;DHT22;8531;48.078;11.968;2024-01-11T02:47:38;-5.70;99.90
16829;DHT22;8531;48.078;11.968;2024-01-11T02:50:05;-5.80;99.90
16829;DHT22;8531;48.078;11.968;2024-01-11T02:52:31;-5.90;99.90
16829;DHT22;8531;48.078;11.968;2024-01-11T02:54:57;-5.70;99.90
16829;DHT22;8531;48.078;11.968;2024-01-11T02:57:23;-5.70;99.90
16829;DHT22;8531;48.078;11.968;2024-01-11T02:59:49;-5.70;99.90
16829;DHT22;8531;48.078;11.968;2024-01-11T03:02:15;-5.60;99.90
16829;DHT22;8531;48.078;11.968;2024-01-11T03:04:41;-5.70;99.90
16829;DHT22;8531;48.078;11.968;2024-01-11T03:07:06;-5.60;99.90
16829;DHT22;8531;48.078;11.968;2024-01-11T03:09:32;-5.60;99.90
16829;DHT22;8531;48.078;11.968;2024-01-11T03:11:59;-5.60;99.90
16829;DHT22;8531;48.078;11.968;2024-01-11T03:14:25;-5.60;99.90
16829;DHT22;8531;48.078;11.968;2024-01-11T03:16:50;-5.70;99.90
16829;DHT22;8531;48.078;11.968;2024-01-11T03:19:16;-5.70;99.90
16829;DHT22;8531;48.078;11.968;2024-01-11T03:21:46;-5.60;99.90
16829;DHT22;8531;48.078;11.968;2024-01-11T03:24:12;-5.70;99.90
16829;DHT22;8531;48.078;11.968;2024-01-11T03:26:38;-5.70;99.90
16829;DHT22;8531;48.078;11.968;2024-01-11T03:29:04;-5.80;99.90
16829;DHT22;8531;48.078;11.968;2024-01-11T03:31:29;-5.70;99.90
16829;DHT22;8531;48.078;11.968;2024-01-11T03:33:55;-5.80;99.90
16829;DHT22;8531;48.078;11.968;2024-01-11T03:36:24;-5.90;99.90
16829;DHT22;8531;48.078;11.968;2024-01-11T03:38:50;-6.00;99.90
16829;DHT22;8531;48.078;11.968;2024-01-11T03:41:16;-6.00;99.90
16829;DHT22;8531;48.078;11.968;2024-01-11T03:43:41;-5.90;99.90
16829;DHT22;8531;48.078;11.968;2024-01-11T03:46:07;-5.90;99.90
16829;DHT22;8531;48.078;11.968;2024-01-11T03:48:33;-5.90;99.90
16829;DHT22;8531;48.078;11.968;2024-01-11T03:51:01;-5.80;99.90
16829;DHT22;8531;48.078;11.968;2024-01-11T03:53:26;-5.80;99.90
16829;DHT22;8531;48.078;11.968;2024-01-11T03:55:52;-5.70;99.90
16829;DHT22;8531;48.078;11.968;2024-01-11T03:58:17;-5.50;99.90
16829;DHT22;8531;48.078;11.968;2024-01-11T04:00:43;-5.50;99.90
16829;DHT22;8531;48.078;11.968;2024-01-11T04:03:09;-5.40;99.90
16829;DHT22;8531;48.078;11.968;2024-01-11T04:05:34;-5.30;99.90
16829;DHT22;8531;48.078;11.968;2024-01-11T04:08:04;-5.30;99.90
16829;DHT22;8531;48.078;11.968;2024-01-11T04:10:29;-5.30;99.90
16829;DHT22;8531;48.078;11.968;2024-01-11T04:12:55;-5.30;99.90
16829;DHT22;8531;48.078;11.968;2024-01-11T04:15:21;-5.20;99.90
16829;DHT22;8531;48.078;11.968;2024-01-11T04:17:47;-5.20;99.90
16829;DHT22;8531;48.078;11.968;2024-01-11T04:20:13;-5.10;99.90
16829;DHT22;8531;48.078;11.968;2024-01-11T04:22:38;-5.00;99.90
16829;DHT22;8531;48.078;11.968;2024-01-11T04:25:04;-4.90;99.90
16829;DHT22;8531;48.078;11.968;2024-01-11T04:27:30;-4.80;99.90
16829;DHT22;8531;48.078;11.968;2024-01-11T04:29:56;-4.90;99.90
16829;DHT22;8531;48.078;11.968;2024-01-11T04:32:22;-4.90;99.90
16829;DHT22;8531;48.078;11.968;2024-01-11T04:34:47;-4.90;99.90
16829;DHT22;8531;48.078;11.968;2024-01-11T04:37:13;-5.10;99.90
16829;DHT22;8531;48.078;11.968;2024-01-11T04:39:39;-5.10;99.90
16829;DHT22;8531;48.078;11.968;2024-01-11T04:42:04;-5.10;99.90
16829;DHT22;8531;48.078;11.968;2024-01-11T04:44:30;-5.00;99.90
16829;DHT22;8531;48.078;11.968;2024-01-11T04:46:56;-4.90;99.90
16829;DHT22;8531;48.078;11.968;2024-01-11T04:49:22;-4.90;99.90
16829;DHT22;8531;48.078;11.968;2024-01-11T04:51:47;-4.90;99.90
16829;DHT22;8531;48.078;11.968;2024-01-11T04:54:13;-4.90;99.90
16829;DHT22;8531;48.078;11.968;2024-01-11T04:56:39;-4.90;99.90
16829;DHT22;8531;48.078;11.968;2024-01-11T04:59:04;-5.00;99.90
16829;DHT22;8531;48.078;11.968;2024-01-11T05:01:30;-5.10;99.90
16829;DHT22;8531;48.078;11.968;2024-01-11T05:03:55;-5.10;99.90
16829;DHT22;8531;48.078;11.968;2024-01-11T05:06:22;-5.10;99.90
16829;DHT22;8531;48.078;11.968;2024-01-11T05:08:49;-5.20;99.90
16829;DHT22;8531;48.078;11.968;2024-01-11T05:11:21;-5.20;99.90
16829;DHT22;8531;48.078;11.968;2024-01-11T05:13:48;-5.00;99.90
16829;DHT22;8531;48.078;11.968;2024-01-11T05:16:24;-4.90;99.90
16829;DHT22;8531;48.078;11.968;2024-01-11T05:18:51;-4.90;99.90
16829;DHT22;8531;48.078;11.968;2024-01-11T05:21:17;-4.90;99.90
16829;DHT22;8531;48.078;11.968;2024-01-11T05:23:43;-4.90;99.90
16829;DHT22;8531;48.078;11.968;2024-01-11T05:26:09;-4.90;99.90
16829;DHT22;8531;48.078;11.968;2024-01-11T05:28:35;-4.90;99.90
16829;DHT22;8531;48.078;11.968;2024-01-11T05:31:01;-4.80;99.90
16829;DHT22;8531;48.078;11.968;2024-01-11T05:33:27;-4.80;99.90
16829;DHT22;8531;48.078;11.968;2024-01-11T05:35:52;-4.90;99.90
16829;DHT22;8531;48.078;11.968;2024-01-11T05:38:19;-4.90;99.90
16829;DHT22;8531;48.078;11.968;2024-01-11T05:40:45;-4.90;99.90
16829;DHT22;8531;48.078;11.968;2024-01-11T05:43:11;-5.00;99.90
16829;DHT22;8531;48.078;11.968;2024-01-11T05:45:36;-5.20;99.90
16829;DHT22;8531;48.078;11.968;2024-01-11T05:48:02;-5.20;99.90
16829;DHT22;8531;48.078;11.968;2024-01-11T05:50:28;-5.20;99.90
16829;DHT22;8531;48.078;11.968;2024-01-11T05:52:54;-5.10;99.90
16829;DHT22;8531;48.078;11.968;2024-01-11T05:55:21;-5.00;99.90
16829;DHT22;8531;48.078;11.968;2024-01-11T05:57:47;-5.10;99.90
16829;DHT22;8531;48.078;11.968;2024-01-11T06:00:13;-5.10;99.90
16829;DHT22;8531;48.078;11.968;2024-01-11T06:02:39;-5.10;99.90
16829;DHT22;8531;48.078;11.968;2024-01-11T06:05:08;-5.10;99.90
16829;DHT22;8531;48.078;11.968;2024-01-11T06:07:34;-5.20;99.90
16829;DHT22;8531;48.078;11.968;2024-01-11T06:10:00;-5.20;99.90
16829;DHT22;8531;48.078;11.968;2024-01-11T06:12:28;-5.20;99.90
16829;DHT22;8531;48.078;11.968;2024-01-11T06:14:54;-5.20;99.90
16829;DHT22;8531;48.078;11.968;2024-01-11T06:17:20;-5.10;99.90
16829;DHT22;8531;48.078;11.968;2024-01-11T06:19:45;-5.20;99.90
16829;DHT22;8531;48.078;11.968;2024-01-11T06:22:11;-5.20;99.90
16829;DHT22;8531;48.078;11.968;2024-01-11T06:24:37;-5.10;99.90
16829;DHT22;8531;48.078;11.968;2024-01-11T06:27:02;-5.20;99.90
16829;DHT22;8531;48.078;11.968;2024-01-11T06:29:28;-5.20;99.90
16829;DHT22;8531;48.078;11.968;2024-01-11T06:31:54;-5.10;99.90
16829;DHT22;8531;48.078;11.968;2024-01-11T06:34:19;-5.20;99.90
16829;DHT22;8531;48.078;11.968;2024-01-11T06:36:45;-5.20;99.90
16829;DHT22;8531;48.078;11.968;2024-01-11T06:39:11;-5.10;99.90
16829;DHT22;8531;48.078;11.968;2024-01-11T06:41:38;-5.30;99.90
16829;DHT22;8531;48.078;11.968;2024-01-11T06:44:04;-5.50;99.90
16829;DHT22;8531;48.078;11.968;2024-01-11T06:46:29;-5.50;99.90
16829;DHT22;8531;48.078;11.968;2024-01-11T06:48:56;-5.60;99.90
16829;DHT22;8531;48.078;11.968;2024-01-11T06:51:22;-5.60;99.90
16829;DHT22;8531;48.078;11.968;2024-01-11T06:53:48;-5.60;99.90
16829;DHT22;8531;48.078;11.968;2024-01-11T06:56:19;-5.60;99.90
16829;DHT22;8531;48.078;11.968;2024-01-11T06:58:45;-5.60;99.90
16829;DHT22;8531;48.078;11.968;2024-01-11T07:01:12;-5.50;99.90
16829;DHT22;8531;48.078;11.968;2024-01-11T07:03:38;-5.40;99.90
16829;DHT22;8531;48.078;11.968;2024-01-11T07:06:04;-5.50;99.90
16829;DHT22;8531;48.078;11.968;2024-01-11T07:08:30;-5.60;99.90
16829;DHT22;8531;48.078;11.968;2024-01-11T07:10:56;-5.50;99.90
16829;DHT22;8531;48.078;11.968;2024-01-11T07:13:22;-5.40;99.90
16829;DHT22;8531;48.078;11.968;2024-01-11T07:15:48;-5.50;99.90
16829;DHT22;8531;48.078;11.968;2024-01-11T07:18:14;-5.70;99.90
16829;DHT22;8531;48.078;11.968;2024-01-11T07:20:40;-5.60;99.90
16829;DHT22;8531;48.078;11.968;2024-01-11T07:23:06;-5.40;99.90
16829;DHT22;8531;48.078;11.968;2024-01-11T07:25:32;-5.30;99.90
16829;DHT22;8531;48.078;11.968;2024-01-11T07:28:00;-5.30;99.90
16829;DHT22;8531;48.078;11.968;2024-01-11T07:30:26;-5.30;99.90
16829;DHT22;8531;48.078;11.968;2024-01-11T07:32:51;-5.50;99.90
16829;DHT22;8531;48.078;11.968;2024-01-11T07:35:17;-5.40;99.90
16829;DHT22;8531;48.078;11.968;2024-01-11T07:37:43;-5.40;99.90
16829;DHT22;8531;48.078;11.968;2024-01-11T07:40:09;-5.60;99.90
16829;DHT22;8531;48.078;11.968;2024-01-11T07:42:40;-5.60;99.90
16829;DHT22;8531;48.078;11.968;2024-01-11T07:45:08;-5.70;99.90
16829;DHT22;8531;48.078;11.968;2024-01-11T07:47:38;-5.60;99.90
16829;DHT22;8531;48.078;11.968;2024-01-11T07:50:07;-5.60;99.90
16829;DHT22;8531;48.078;11.968;2024-01-11T07:52:35;-5.40;99.90
16829;DHT22;8531;48.078;11.968;2024-01-11T07:55:02;-5.40;99.90
16829;DHT22;8531;48.078;11.968;2024-01-11T07:57:35;-5.40;99.90
16829;DHT22;8531;48.078;11.968;2024-01-11T08:00:01;-5.30;99.90
16829;DHT22;8531;48.078;11.968;2024-01-11T08:02:27;-5.20;99.90
16829;DHT22;8531;48.078;11.968;2024-01-11T08:04:53;-5.10;99.90
16829;DHT22;8531;48.078;11.968;2024-01-11T08:07:18;-5.00;99.90
16829;DHT22;8531;48.078;11.968;2024-01-11T08:09:44;-4.90;99.90
16829;DHT22;8531;48.078;11.968;2024-01-11T08:12:14;-4.80;99.90
16829;DHT22;8531;48.078;11.968;2024-01-11T08:14:40;-4.70;99.90
16829;DHT22;8531;48.078;11.968;2024-01-11T08:17:08;-4.70;99.90
16829;DHT22;8531;48.078;11.968;2024-01-11T08:19:34;-4.80;99.90
16829;DHT22;8531;48.078;11.968;2024-01-11T08:22:00;-4.80;99.90
16829;DHT22;8531;48.078;11.968;2024-01-11T08:24:26;-4.70;99.90
16829;DHT22;8531;48.078;11.968;2024-01-11T08:26:52;-4.70;99.90
16829;DHT22;8531;48.078;11.968;2024-01-11T08:29:18;-4.70;99.90
16829;DHT22;8531;48.078;11.968;2024-01-11T08:31:45;-4.60;99.90
16829;DHT22;8531;48.078;11.968;2024-01-11T08:34:11;-4.60;99.90
16829;DHT22;8531;48.078;11.968;2024-01-11T08:36:37;-4.60;99.90
16829;DHT22;8531;48.078;11.968;2024-01-11T08:39:07;-4.50;99.90
16829;DHT22;8531;48.078;11.968;2024-01-11T08:41:37;-4.40;99.90
16829;DHT22;8531;48.078;11.968;2024-01-11T08:44:04;-4.40;99.90
16829;DHT22;8531;48.078;11.968;2024-01-11T08:46:32;-4.40;99.90
16829;DHT22;8531;48.078;11.968;2024-01-11T08:49:02;-4.30;99.90
16829;DHT22;8531;48.078;11.968;2024-01-11T08:51:31;-4.30;99.90
16829;DHT22;8531;48.078;11.968;2024-01-11T08:53:58;-4.20;99.90
16829;DHT22;8531;48.078;11.968;2024-01-11T08:56:24;-4.20;99.90
16829;DHT22;8531;48.078;11.968;2024-01-11T08:58:50;-4.30;99.90
16829;DHT22;8531;48.078;11.968;2024-01-11T09:01:16;-4.20;99.90
16829;DHT22;8531;48.078;11.968;2024-01-11T09:03:43;-4.10;99.90
16829;DHT22;8531;48.078;11.968;2024-01-11T09:06:09;-4.10;99.90
16829;DHT22;8531;48.078;11.968;2024-01-11T09:08:35;-4.20;99.90
16829;DHT22;8531;48.078;11.968;2024-01-11T09:11:01;-4.20;99.90
16829;DHT22;8531;48.078;11.968;2024-01-11T09:13:28;-4.20;99.90
16829;DHT22;8531;48.078;11.968;2024-01-11T09:15:54;-4.20;99.90
16829;DHT22;8531;48.078;11.968;2024-01-11T09:18:20;-4.10;99.90
16829;DHT22;8531;48.078;11.968;2024-01-11T09:20:46;-4.10;99.90
16829;DHT22;8531;48.078;11.968;2024-01-11T09:23:13;-4.10;99.90
16829;DHT22;8531;48.078;11.968;2024-01-11T09:25:39;-4.10;99.90
16829;DHT22;8531;48.078;11.968;2024-01-11T09:28:05;-4.20;99.90
16829;DHT22;8531;48.078;11.968;2024-01-11T09:30:31;-4.10;99.90
16829;DHT22;8531;48.078;11.968;2024-01-11T09:32:57;-4.20;99.90
16829;DHT22;8531;48.078;11.968;2024-01-11T09:35:23;-4.10;99.90
16829;DHT22;8531;48.078;11.968;2024-01-11T09:37:49;-4.00;99.90
16829;DHT22;8531;48.078;11.968;2024-01-11T09:40:15;-4.00;99.90
16829;DHT22;8531;48.078;11.968;2024-01-11T09:42:41;-4.20;99.90
16829;DHT22;8531;48.078;11.968;2024-01-11T09:45:09;-4.20;99.90
16829;DHT22;8531;48.078;11.968;2024-01-11T09:47:36;-4.30;99.90
16829;DHT22;8531;48.078;11.968;2024-01-11T09:50:06;-4.20;99.90
16829;DHT22;8531;48.078;11.968;2024-01-11T09:52:32;-4.20;99.90
16829;DHT22;8531;48.078;11.968;2024-01-11T09:55:01;-4.10;99.90
16829;DHT22;8531;48.078;11.968;2024-01-11T09:57:31;-4.00;99.90
16829;DHT22;8531;48.078;11.968;2024-01-11T09:59:58;-4.00;99.90
16829;DHT22;8531;48.078;11.968;2024-01-11T10:02:25;-4.00;99.90
16829;DHT22;8531;48.078;11.968;2024-01-11T10:04:54;-3.90;99.90
16829;DHT22;8531;48.078;11.968;2024-01-11T10:07:22;-3.90;99.90
16829;DHT22;8531;48.078;11.968;2024-01-11T10:09:48;-3.80;99.90
16829;DHT22;8531;48.078;11.968;2024-01-11T10:12:14;-3.90;99.90
16829;DHT22;8531;48.078;11.968;2024-01-11T10:14:39;-3.80;99.90
16829;DHT22;8531;48.078;11.968;2024-01-11T10:17:06;-3.80;99.90
16829;DHT22;8531;48.078;11.968;2024-01-11T10:19:32;-3.80;99.90
16829;DHT22;8531;48.078;11.968;2024-01-11T10:21:58;-3.70;99.90
16829;DHT22;8531;48.078;11.968;2024-01-11T10:24:26;-3.60;99.90
16829;DHT22;8531;48.078;11.968;2024-01-11T10:26:55;-3.60;99.90
16829;DHT22;8531;48.078;11.968;2024-01-11T10:29:22;-3.60;99.90
16829;DHT22;8531;48.078;11.968;2024-01-11T10:31:49;-3.60;99.90
16829;DHT22;8531;48.078;11.968;2024-01-11T10:34:16;-3.50;99.90
16829;DHT22;8531;48.078;11.968;2024-01-11T10:36:42;-3.50;99.90
16829;DHT22;8531;48.078;11.968;2024-01-11T10:39:10;-3.50;99.90
16829;DHT22;8531;48.078;11.968;2024-01-11T10:41:40;-3.60;99.90
16829;DHT22;8531;48.078;11.968;2024-01-11T10:44:18;-3.40;99.90
16829;DHT22;8531;48.078;11.968;2024-01-11T10:46:46;-3.40;99.90
16829;DHT22;8531;48.078;11.968;2024-01-11T10:49:18;-3.40;99.90
16829;DHT22;8531;48.078;11.968;2024-01-11T10:52:02;-3.50;99.90
16829;DHT22;8531;48.078;11.968;2024-01-11T10:54:31;-3.60;99.90
16829;DHT22;8531;48.078;11.968;2024-01-11T10:57:00;-3.50;99.90
16829;DHT22;8531;48.078;11.968;2024-01-11T10:59:27;-3.50;99.90
16829;DHT22;8531;48.078;11.968;2024-01-11T11:01:57;-3.50;99.90
16829;DHT22;8531;48.078;11.968;2024-01-11T11:04:24;-3.40;99.90
16829;DHT22;8531;48.078;11.968;2024-01-11T11:06:52;-3.40;99.90
16829;DHT22;8531;48.078;11.968;2024-01-11T11:09:20;-3.40;99.90
16829;DHT22;8531;48.078;11.968;2024-01-11T11:11:48;-3.50;99.90
16829;DHT22;8531;48.078;11.968;2024-01-11T11:14:15;-3.40;99.90
16829;DHT22;8531;48.078;11.968;2024-01-11T11:16:41;-3.40;99.90
16829;DHT22;8531;48.078;11.968;2024-01-11T11:19:07;-3.40;99.90
16829;DHT22;8531;48.078;11.968;2024-01-11T11:21:42;-3.50;99.90
16829;DHT22;8531;48.078;11.968;2024-01-11T11:24:08;-3.50;99.90
16829;DHT22;8531;48.078;11.968;2024-01-11T11:26:35;-3.30;99.90
16829;DHT22;8531;48.078;11.968;2024-01-11T11:29:22;-3.30;99.90
16829;DHT22;8531;48.078;11.968;2024-01-11T11:31:46;-3.20;99.90
16829;DHT22;8531;48.078;11.968;2024-01-11T11:34:41;-3.40;99.90
16829;DHT22;8531;48.078;11.968;2024-01-11T11:37:10;-3.50;99.90
16829;DHT22;8531;48.078;11.968;2024-01-11T11:39:37;-3.40;99.90
16829;DHT22;8531;48.078;11.968;2024-01-11T11:42:04;-3.30;99.90
16829;DHT22;8531;48.078;11.968;2024-01-11T11:44:30;-3.20;99.90
16829;DHT22;8531;48.078;11.968;2024-01-11T11:47:17;-3.20;99.90
16829;DHT22;8531;48.078;11.968;2024-01-11T11:50:03;-3.30;99.90
16829;DHT22;8531;48.078;11.968;2024-01-11T11:52:34;-3.30;99.90
16829;DHT22;8531;48.078;11.968;2024-01-11T11:55:01;-3.40;99.90
16829;DHT22;8531;48.078;11.968;2024-01-11T11:57:28;-3.20;99.90
16829;DHT22;8531;48.078;11.968;2024-01-11T11:59:57;-3.10;99.90
16829;DHT22;8531;48.078;11.968;2024-01-11T12:02:41;-3.10;99.90
16829;DHT22;8531;48.078;11.968;2024-01-11T12:05:07;-3.10;99.90
16829;DHT22;8531;48.078;11.968;2024-01-11T12:07:33;-3.00;99.90
16829;DHT22;8531;48.078;11.968;2024-01-11T12:10:00;-3.00;99.90
16829;DHT22;8531;48.078;11.968;2024-01-11T12:12:25;-3.00;99.90
16829;DHT22;8531;48.078;11.968;2024-01-11T12:14:53;-2.90;99.90
16829;DHT22;8531;48.078;11.968;2024-01-11T12:17:19;-2.90;99.90
16829;DHT22;8531;48.078;11.968;2024-01-11T12:19:44;-2.90;99.90
16829;DHT22;8531;48.078;11.968;2024-01-11T12:22:10;-2.90;99.90
16829;DHT22;8531;48.078;11.968;2024-01-11T12:24:36;-2.80;99.90
16829;DHT22;8531;48.078;11.968;2024-01-11T12:27:02;-2.90;99.90
16829;DHT22;8531;48.078;11.968;2024-01-11T12:29:29;-3.00;99.90
16829;DHT22;8531;48.078;11.968;2024-01-11T12:31:57;-3.10;99.90
16829;DHT22;8531;48.078;11.968;2024-01-11T12:34:25;-3.10;99.90
16829;DHT22;8531;48.078;11.968;2024-01-11T12:36:52;-3.10;99.90
16829;DHT22;8531;48.078;11.968;2024-01-11T12:39:19;-3.00;99.90
16829;DHT22;8531;48.078;11.968;2024-01-11T12:41:50;-3.10;99.90
16829;DHT22;8531;48.078;11.968;2024-01-11T12:44:20;-3.20;99.90
16829;DHT22;8531;48.078;11.968;2024-01-11T12:46:48;-3.30;99.90
16829;DHT22;8531;48.078;11.968;2024-01-11T12:49:15;-3.20;99.90
16829;DHT22;8531;48.078;11.968;2024-01-11T12:51:41;-3.20;99.90
16829;DHT22;8531;48.078;11.968;2024-01-11T12:54:13;-3.00;99.90
16829;DHT22;8531;48.078;11.968;2024-01-11T12:56:45;-3.10;99.90
16829;DHT22;8531;48.078;11.968;2024-01-11T12:59:11;-3.00;99.90
16829;DHT22;8531;48.078;11.968;2024-01-11T13:01:38;-3.00;99.90
16829;DHT22;8531;48.078;11.968;2024-01-11T13:04:05;-2.90;99.90
16829;DHT22;8531;48.078;11.968;2024-01-11T13:06:31;-2.90;99.90
16829;DHT22;8531;48.078;11.968;2024-01-11T13:09:00;-3.00;99.90
16829;DHT22;8531;48.078;11.968;2024-01-11T13:11:26;-2.90;99.90
16829;DHT22;8531;48.078;11.968;2024-01-11T13:13:53;-3.00;99.90
16829;DHT22;8531;48.078;11.968;2024-01-11T13:16:19;-3.10;99.90
16829;DHT22;8531;48.078;11.968;2024-01-11T13:18:46;-3.10;99.90
16829;DHT22;8531;48.078;11.968;2024-01-11T13:21:11;-3.00;99.90
16829;DHT22;8531;48.078;11.968;2024-01-11T13:23:38;-2.90;99.90
16829;DHT22;8531;48.078;11.968;2024-01-11T13:26:05;-3.00;99.90
16829;DHT22;8531;48.078;11.968;2024-01-11T13:28:31;-3.00;99.90
16829;DHT22;8531;48.078;11.968;2024-01-11T13:30:57;-3.00;99.90
16829;DHT22;8531;48.078;11.968;2024-01-11T13:33:23;-3.00;99.90
16829;DHT22;8531;48.078;11.968;2024-01-11T13:35:49;-3.00;99.90
16829;DHT22;8531;48.078;11.968;2024-01-11T13:38:15;-2.90;99.90
16829;DHT22;8531;48.078;11.968;2024-01-11T13:40:41;-2.90;99.90
16829;DHT22;8531;48.078;11.968;2024-01-11T13:43:09;-2.90;99.90
16829;DHT22;8531;48.078;11.968;2024-01-11T13:45:35;-3.10;99.90
16829;DHT22;8531;48.078;11.968;2024-01-11T13:48:05;-3.10;99.90
16829;DHT22;8531;48.078;11.968;2024-01-11T13:50:30;-3.10;99.90
16829;DHT22;8531;48.078;11.968;2024-01-11T13:52:56;-3.20;99.90
16829;DHT22;8531;48.078;11.968;2024-01-11T13:55:22;-3.30;99.90
16829;DHT22;8531;48.078;11.968;2024-01-11T13:57:51;-3.30;99.90
16829;DHT22;8531;48.078;11.968;2024-01-11T14:00:18;-3.30;99.90
16829;DHT22;8531;48.078;11.968;2024-01-11T14:02:45;-3.40;99.90
16829;DHT22;8531;48.078;11.968;2024-01-11T14:05:12;-3.40;99.90
16829;DHT22;8531;48.078;11.968;2024-01-11T14:07:44;-3.30;99.90
16829;DHT22;8531;48.078;11.968;2024-01-11T14:10:11;-3.10;99.90
16829;DHT22;8531;48.078;11.968;2024-01-11T14:12:37;-3.10;99.90
16829;DHT22;8531;48.078;11.968;2024-01-11T14:15:04;-2.90;99.90
16829;DHT22;8531;48.078;11.968;2024-01-11T14:17:31;-2.90;99.90
16829;DHT22;8531;48.078;11.968;2024-01-11T14:19:57;-2.90;99.90
16829;DHT22;8531;48.078;11.968;2024-01-11T14:22:23;-2.80;99.90
16829;DHT22;8531;48.078;11.968;2024-01-11T14:24:49;-2.80;99.90
16829;DHT22;8531;48.078;11.968;2024-01-11T14:27:15;-2.80;99.90
16829;DHT22;8531;48.078;11.968;2024-01-11T14:29:42;-2.90;99.90
16829;DHT22;8531;48.078;11.968;2024-01-11T14:32:07;-2.90;99.90
16829;DHT22;8531;48.078;11.968;2024-01-11T14:34:33;-3.00;99.90
16829;DHT22;8531;48.078;11.968;2024-01-11T14:36:59;-3.20;99.90
16829;DHT22;8531;48.078;11.968;2024-01-11T14:39:25;-3.30;99.90
16829;DHT22;8531;48.078;11.968;2024-01-11T14:41:52;-3.20;99.90
16829;DHT22;8531;48.078;11.968;2024-01-11T14:44:21;-3.30;99.90
16829;DHT22;8531;48.078;11.968;2024-01-11T14:46:48;-3.20;99.90
16829;DHT22;8531;48.078;11.968;2024-01-11T14:49:14;-3.20;99.90
16829;DHT22;8531;48.078;11.968;2024-01-11T14:51:40;-3.20;99.90
16829;DHT22;8531;48.078;11.968;2024-01-11T14:54:05;-3.10;99.90
16829;DHT22;8531;48.078;11.968;2024-01-11T14:56:31;-3.10;99.90
16829;DHT22;8531;48.078;11.968;2024-01-11T14:58:57;-3.20;99.90
16829;DHT22;8531;48.078;11.968;2024-01-11T15:01:22;-3.20;99.90
16829;DHT22;8531;48.078;11.968;2024-01-11T15:03:48;-3.10;99.90
16829;DHT22;8531;48.078;11.968;2024-01-11T15:06:14;-3.30;99.90
16829;DHT22;8531;48.078;11.968;2024-01-11T15:08:39;-3.30;99.90
16829;DHT22;8531;48.078;11.968;2024-01-11T15:11:05;-3.10;99.90
16829;DHT22;8531;48.078;11.968;2024-01-11T15:13:31;-3.00;99.90
16829;DHT22;8531;48.078;11.968;2024-01-11T15:15:57;-3.00;99.90
16829;DHT22;8531;48.078;11.968;2024-01-11T15:18:23;-3.10;99.90
16829;DHT22;8531;48.078;11.968;2024-01-11T15:20:48;-3.30;99.90
16829;DHT22;8531;48.078;11.968;2024-01-11T15:23:15;-3.20;99.90
16829;DHT22;8531;48.078;11.968;2024-01-11T15:25:41;-3.10;99.90
16829;DHT22;8531;48.078;11.968;2024-01-11T15:28:07;-3.10;99.90